createdAt,value
2023-03-17T05:23:16.057Z,2.20
2023-03-17T05:25:20.135Z,1.55
2023-03-17T05:27:24.411Z,2.97
2023-03-17T05:29:28.595Z,1.42
2023-03-17T05:31:32.854Z,2.85
2023-03-17T05:33:37.479Z,2.15
2023-03-17T05:35:41.681Z,2.25
2023-03-17T05:37:46.064Z,3.35
2023-03-17T05:39:52.616Z,1.80
2023-03-17T05:41:56.892Z,2.85
2023-03-17T05:44:00.838Z,2.28
2023-03-17T05:46:05.781Z,2.75
2023-03-17T05:48:09.688Z,1.33
2023-03-17T05:50:13.899Z,2.30
2023-03-17T05:52:18.295Z,2.35
2023-03-17T05:54:22.399Z,1.88
2023-03-17T05:56:33.264Z,1.98
2023-03-17T05:58:37.112Z,2.92
2023-03-17T06:00:40.959Z,2.25
2023-03-17T06:02:44.895Z,1.45
2023-03-17T06:04:48.780Z,2.83
2023-03-17T06:06:52.600Z,3.38
2023-03-17T06:08:56.501Z,1.48
2023-03-17T06:11:00.714Z,1.63
2023-03-17T06:13:05.905Z,1.63
2023-03-17T06:15:10.719Z,1.45
2023-03-17T06:17:14.516Z,2.88
2023-03-17T06:19:18.346Z,1.67
2023-03-17T06:21:22.203Z,1.95
2023-03-17T06:23:26.028Z,1.75
2023-03-17T06:25:30.340Z,4.00
2023-03-17T06:27:34.254Z,1.05
2023-03-17T06:29:39.404Z,3.08
2023-03-17T06:31:50.097Z,3.15
2023-03-17T06:35:58.575Z,2.08
2023-03-17T06:38:03.374Z,3.30
2023-03-17T06:40:10.152Z,1.85
2023-03-17T06:42:14.191Z,1.95
2023-03-17T06:44:18.155Z,1.23
2023-03-17T06:46:23.412Z,2.83
2023-03-17T06:48:27.251Z,2.50
2023-03-17T06:50:31.187Z,2.00
2023-03-17T06:52:34.988Z,1.75
2023-03-17T06:54:39.049Z,3.05
2023-03-17T06:56:44.238Z,2.20
2023-03-17T06:58:48.058Z,8.48
2023-03-17T07:00:53.971Z,2.03
2023-03-17T07:02:59.583Z,1.38
2023-03-17T07:05:04.406Z,3.85
2023-03-17T07:07:08.433Z,2.17
2023-03-17T07:09:12.243Z,1.60
2023-03-17T07:11:16.994Z,4.38
2023-03-17T07:13:20.885Z,3.15
2023-03-17T07:15:24.701Z,1.20
2023-03-17T07:17:28.867Z,4.07
2023-03-17T07:19:35.061Z,1.45
2023-03-17T07:21:38.877Z,1.10
2023-03-17T07:23:42.749Z,3.13
2023-03-17T07:25:47.368Z,3.08
2023-03-17T07:27:51.886Z,1.10
2023-03-17T07:29:55.704Z,1.40
2023-03-17T07:31:59.553Z,4.40
2023-03-17T07:34:03.949Z,5.68
2023-03-17T07:36:10.499Z,1.85
2023-03-17T07:38:15.052Z,0.90
2023-03-17T07:40:19.408Z,1.85
2023-03-17T07:42:23.229Z,3.17
2023-03-17T07:44:27.458Z,3.20
2023-03-17T07:46:31.375Z,4.20
2023-03-17T07:48:37.531Z,5.35
2023-03-17T07:50:42.313Z,1.25
2023-03-17T07:52:47.739Z,2.47
2023-03-17T07:54:53.017Z,4.55
2023-03-17T07:56:57.043Z,2.20
2023-03-17T07:59:01.584Z,2.13
2023-03-17T08:01:05.960Z,7.40
2023-03-17T08:03:11.190Z,1.33
2023-03-17T08:05:15.118Z,3.38
2023-03-17T08:07:19.351Z,2.42
2023-03-17T08:09:24.679Z,8.00
2023-03-17T08:11:29.553Z,1.90
2023-03-17T08:13:33.625Z,3.95
2023-03-17T08:15:37.527Z,1.58
2023-03-17T08:17:41.784Z,4.25
2023-03-17T08:19:45.644Z,1.88
2023-03-17T08:21:49.507Z,2.08
2023-03-17T08:23:53.439Z,5.57
2023-03-17T08:25:59.568Z,3.75
2023-03-17T08:28:03.534Z,2.95
2023-03-17T08:30:09.329Z,2.67
2023-03-17T08:32:16.239Z,11.32
2023-03-17T08:34:20.099Z,2.75
2023-03-17T08:36:24.489Z,5.78
2023-03-17T08:38:28.581Z,3.15
2023-03-17T08:40:32.711Z,1.92
2023-03-17T08:42:38.487Z,1.80
2023-03-17T08:44:44.196Z,3.97
2023-03-17T08:46:49.404Z,2.92
2023-03-17T08:48:53.989Z,16.17
2023-03-17T08:50:58.664Z,3.60
2023-03-17T08:53:02.549Z,6.07
2023-03-17T08:55:08.800Z,3.83
2023-03-17T08:57:15.566Z,5.22
2023-03-17T08:59:20.858Z,2.88
2023-03-17T09:01:24.824Z,3.67
2023-03-17T09:03:28.940Z,4.47
2023-03-17T09:05:36.207Z,4.82
2023-03-17T09:07:41.657Z,2.20
2023-03-17T09:09:46.218Z,4.22
2023-03-17T09:11:50.641Z,6.30
2023-03-17T09:13:54.609Z,2.85
2023-03-17T09:15:59.792Z,2.75
2023-03-17T09:18:04.175Z,1.60
2023-03-17T09:20:09.964Z,3.00
2023-03-17T09:22:14.686Z,2.60
2023-03-17T09:24:18.765Z,1.02
2023-03-17T09:26:25.070Z,3.55
2023-03-17T09:28:29.063Z,2.92
2023-03-17T09:30:33.585Z,3.58
2023-03-17T09:32:38.895Z,8.23
2023-03-17T09:34:42.928Z,1.25
2023-03-17T09:36:47.019Z,3.25
2023-03-17T09:38:51.168Z,2.55
2023-03-17T09:40:58.636Z,3.63
2023-03-17T09:43:20.292Z,7.93
2023-03-17T09:45:33.686Z,3.45
2023-03-17T09:47:56.491Z,3.78
2023-03-17T09:50:01.134Z,1.55
2023-03-17T09:52:06.072Z,1.27
2023-03-17T09:54:12.692Z,1.80
2023-03-17T09:56:18.198Z,4.43
2023-03-17T09:58:27.121Z,1.40
2023-03-17T10:00:31.439Z,2.92
2023-03-17T10:02:37.388Z,3.15
2023-03-17T10:04:44.852Z,1.83
2023-03-17T10:06:48.738Z,2.63
2023-03-17T10:08:56.737Z,1.88
2023-03-17T10:11:03.849Z,1.90
2023-03-17T10:13:14.755Z,1.50
2023-03-17T10:15:22.388Z,1.02
2023-03-17T10:17:29.092Z,1.98
2023-03-17T10:19:36.039Z,9.23
2023-03-17T10:21:48.251Z,1.63
2023-03-17T10:23:52.158Z,4.03
2023-03-17T10:25:56.397Z,5.18
2023-03-17T10:28:03.508Z,3.33
2023-03-17T10:30:14.778Z,2.08
2023-03-17T10:32:18.603Z,2.42
2023-03-17T10:34:25.411Z,2.83
2023-03-17T10:36:37.671Z,5.47
2023-03-17T10:38:43.359Z,1.25
2023-03-17T10:40:48.895Z,4.53
2023-03-17T10:43:01.580Z,2.13
2023-03-17T10:45:08.777Z,2.65
2023-03-17T10:47:25.368Z,3.83
2023-03-17T10:49:29.290Z,2.97
2023-03-17T10:51:35.433Z,1.40
2023-03-17T10:53:43.266Z,2.00
2023-03-17T10:55:51.751Z,2.90
2023-03-17T10:58:01.486Z,3.20
2023-03-17T11:00:13.227Z,2.42
2023-03-17T11:02:27.131Z,1.95
2023-03-17T11:04:33.168Z,2.17
2023-03-17T11:06:39.932Z,2.78
2023-03-17T11:08:48.847Z,2.58
2023-03-17T11:10:57.547Z,3.85
2023-03-17T11:13:02.617Z,2.42
2023-03-17T11:15:08.260Z,4.32
2023-03-17T11:17:18.461Z,4.68
2023-03-17T11:19:24.436Z,3.60
2023-03-17T11:21:30.005Z,4.55
2023-03-17T11:23:51.211Z,13.35
2023-03-17T11:26:06.617Z,4.35
2023-03-17T11:28:19.754Z,3.40
2023-03-17T11:30:30.521Z,3.08
2023-03-17T11:32:37.657Z,4.38
2023-03-17T11:34:55.034Z,3.40
2023-03-17T11:37:03.833Z,2.50
2023-03-17T11:39:13.507Z,3.03
2023-03-17T11:41:47.121Z,8.40
2023-03-17T11:44:13.956Z,2.08
2023-03-17T11:46:20.412Z,1.40
2023-03-17T11:48:32.635Z,2.90
2023-03-17T11:50:40.795Z,2.85
2023-03-17T11:52:53.605Z,2.97
2023-03-17T11:55:01.400Z,1.85
2023-03-17T11:57:09.185Z,7.10
2023-03-17T11:59:18.996Z,5.03
2023-03-17T12:01:27.124Z,5.65
2023-03-17T12:03:34.884Z,8.38
2023-03-17T12:05:39.605Z,4.28
2023-03-17T12:07:46.686Z,6.18
2023-03-17T12:09:57.996Z,6.13
2023-03-17T12:12:02.412Z,8.65
2023-03-17T12:14:13.963Z,6.45
2023-03-17T12:16:21.229Z,7.18
2023-03-17T12:18:27.431Z,10.13
2023-03-17T12:20:34.037Z,4.68
2023-03-17T12:22:41.301Z,7.45
2023-03-17T12:24:48.564Z,9.75
2023-03-17T12:26:57.549Z,5.07
2023-03-17T12:29:05.134Z,3.67
2023-03-17T12:31:13.909Z,2.88
2023-03-17T12:33:22.803Z,3.72
2023-03-17T12:35:29.268Z,4.90
2023-03-17T12:37:33.549Z,3.25
2023-03-17T12:39:39.029Z,3.65
2023-03-17T12:42:05.087Z,5.32
2023-03-17T12:44:15.702Z,6.40
2023-03-17T12:47:01.214Z,2.63
2023-03-17T12:49:27.130Z,4.90
2023-03-17T12:51:52.829Z,6.18
2023-03-17T12:53:56.656Z,4.38
2023-03-17T12:56:02.452Z,5.15
2023-03-17T12:58:08.027Z,3.83
2023-03-17T13:00:25.137Z,7.63
2023-03-17T13:02:37.834Z,5.60
2023-03-17T13:04:48.745Z,2.92
2023-03-17T13:07:00.665Z,3.90
2023-03-17T13:09:39.438Z,3.53
2023-03-17T13:11:48.161Z,4.43
2023-03-17T13:14:17.270Z,7.50
2023-03-17T13:16:33.765Z,4.25
2023-03-17T13:19:06.990Z,3.83
2023-03-17T13:21:13.805Z,3.10
2023-03-17T13:28:01.446Z,2.60
2023-03-17T13:30:42.976Z,2.80
2023-03-17T13:32:56.326Z,2.40
2023-03-17T13:42:24.351Z,2.60
2023-03-17T13:54:54.009Z,4.35
2023-03-17T13:56:59.328Z,6.25
2023-03-17T13:59:09.016Z,2.35
2023-03-17T14:01:13.339Z,3.03
2023-03-17T14:03:20.150Z,3.75
2023-03-17T14:05:26.759Z,5.28
2023-03-17T14:07:32.707Z,4.35
2023-03-17T14:09:38.797Z,1.83
2023-03-17T14:11:46.459Z,3.63
2023-03-17T14:13:56.017Z,2.97
2023-03-17T14:16:03.730Z,2.58
2023-03-17T14:18:14.851Z,2.53
2023-03-17T14:20:23.250Z,3.60
2023-03-17T14:22:27.115Z,2.20
2023-03-17T14:24:32.303Z,4.50
2023-03-17T14:26:36.256Z,3.92
2023-03-17T14:28:41.676Z,2.47
2023-03-17T14:30:52.658Z,2.55
2023-03-17T14:35:05.266Z,3.70
2023-03-17T14:37:11.759Z,2.67
2023-03-17T14:39:26.111Z,2.05
2023-03-17T14:41:31.765Z,2.50
2023-03-17T14:43:37.141Z,4.50
2023-03-17T14:45:50.122Z,2.65
2023-03-17T14:47:54.009Z,4.13
2023-03-17T14:49:57.804Z,3.30
2023-03-17T14:52:02.488Z,2.25
2023-03-17T14:54:12.292Z,6.70
2023-03-17T14:56:16.222Z,4.18
2023-03-17T14:58:23.607Z,2.00
2023-03-17T15:00:37.381Z,2.95
2023-03-17T15:02:44.170Z,3.00
2023-03-17T15:04:52.804Z,3.17
2023-03-17T15:06:57.379Z,5.95
2023-03-17T15:09:03.944Z,2.10
2023-03-17T15:11:08.128Z,4.63
2023-03-17T15:13:11.951Z,5.65
2023-03-17T15:15:22.663Z,3.00
2023-03-17T15:19:40.238Z,2.80
2023-03-17T15:21:44.170Z,6.00
2023-03-17T15:23:48.685Z,3.67
2023-03-17T15:25:55.796Z,2.67
2023-03-17T15:27:59.892Z,2.40
2023-03-17T15:30:04.094Z,3.13
2023-03-17T15:32:13.243Z,3.13
2023-03-17T15:34:17.075Z,3.25
2023-03-17T15:36:32.335Z,2.13
2023-03-17T15:38:38.859Z,1.77
2023-03-17T15:40:42.686Z,3.67
2023-03-17T15:42:46.542Z,2.85
2023-03-17T15:44:50.779Z,3.03
2023-03-17T15:46:54.627Z,2.13
2023-03-17T15:48:58.499Z,3.20
2023-03-17T15:51:03.238Z,4.25
2023-03-17T15:53:09.969Z,4.07
2023-03-17T15:55:19.396Z,3.08
2023-03-17T15:57:23.248Z,2.38
2023-03-17T15:59:27.062Z,2.42
2023-03-17T16:01:30.917Z,1.52
2023-03-17T16:03:36.977Z,4.03
2023-03-17T16:05:40.917Z,5.85
2023-03-17T16:07:44.853Z,2.95
2023-03-17T16:09:50.418Z,2.78
2023-03-17T16:11:54.237Z,5.68
2023-03-17T16:13:59.503Z,2.70
2023-03-17T16:16:05.630Z,2.40
2023-03-17T16:18:15.081Z,2.92
2023-03-17T16:20:24.187Z,3.83
2023-03-17T16:22:39.866Z,2.25
2023-03-17T16:24:43.769Z,6.95
2023-03-17T16:26:49.159Z,6.28
2023-03-17T16:28:53.827Z,3.78
2023-03-17T16:30:59.021Z,3.40
2023-03-17T16:33:04.986Z,2.25
2023-03-17T16:35:15.416Z,2.67
2023-03-17T16:37:19.267Z,3.00
2023-03-17T16:39:24.011Z,2.03
2023-03-17T16:41:29.435Z,3.60
2023-03-17T16:43:37.715Z,4.13
2023-03-17T16:45:41.586Z,2.65
2023-03-17T16:47:45.585Z,3.13
2023-03-17T16:49:49.442Z,1.73
2023-03-17T16:51:53.305Z,1.85
2023-03-17T16:53:57.115Z,2.63
2023-03-17T16:56:01.054Z,2.55
2023-03-17T16:58:08.529Z,2.65
2023-03-17T17:00:17.013Z,1.35
2023-03-17T17:02:20.877Z,2.58
2023-03-17T17:04:25.082Z,3.15
2023-03-17T17:06:29.128Z,1.95
2023-03-17T17:08:32.957Z,3.33
2023-03-17T17:10:37.344Z,1.80
2023-03-17T17:12:41.273Z,4.57
2023-03-17T17:14:45.145Z,2.40
2023-03-17T17:16:50.421Z,2.60
2023-03-17T17:18:54.405Z,5.18
2023-03-17T17:20:58.263Z,2.83
2023-03-17T17:23:02.891Z,7.40
2023-03-17T17:25:59.157Z,1.90
2023-03-17T17:28:03.445Z,3.17
2023-03-17T17:30:09.484Z,3.00
2023-03-17T17:32:18.058Z,2.45
2023-03-17T17:34:22.219Z,1.80
2023-03-17T17:36:26.173Z,3.35
2023-03-17T17:38:30.267Z,3.85
2023-03-17T17:40:34.631Z,1.85
2023-03-17T17:42:38.689Z,1.98
2023-03-17T17:44:42.776Z,4.93
2023-03-17T17:46:46.689Z,2.17
2023-03-17T17:48:51.899Z,2.53
2023-03-17T17:50:57.124Z,1.48
2023-03-17T17:53:05.365Z,2.58
2023-03-17T17:55:09.846Z,4.18
2023-03-17T17:57:14.048Z,1.95
2023-03-17T17:59:17.949Z,2.15
2023-03-17T18:01:22.736Z,1.67
2023-03-17T18:03:27.047Z,1.05
2023-03-17T18:05:32.869Z,1.98
2023-03-17T18:07:36.867Z,2.70
2023-03-17T18:09:40.817Z,7.05
2023-03-17T18:11:44.903Z,5.13
2023-03-17T18:13:48.805Z,3.55
2023-03-17T18:15:52.884Z,4.97
2023-03-17T18:17:56.770Z,40.25
2023-03-17T18:20:20.342Z,15.93
2023-03-17T18:22:25.547Z,10.98
2023-03-17T18:24:30.019Z,109.25
2023-03-17T18:26:34.284Z,104.82
2023-03-17T18:28:38.366Z,127.72
2023-03-17T18:30:42.483Z,151.00
2023-03-17T18:32:46.402Z,139.90
2023-03-17T18:34:50.755Z,163.25
2023-03-17T18:36:55.243Z,139.98
2023-03-17T18:39:00.792Z,131.00
2023-03-17T18:41:04.684Z,132.40
2023-03-17T18:43:08.514Z,124.10
2023-03-17T18:45:13.497Z,125.18
2023-03-17T18:47:17.484Z,127.90
2023-03-17T18:49:23.955Z,118.95
2023-03-17T18:51:27.784Z,119.68
2023-03-17T18:53:34.264Z,129.15
2023-03-17T18:55:39.488Z,116.93
2023-03-17T18:57:44.765Z,120.85
2023-03-17T18:59:48.888Z,116.65
2023-03-17T19:01:52.745Z,112.65
2023-03-17T19:03:56.563Z,112.53
2023-03-17T19:06:08.718Z,116.03
2023-03-17T19:08:13.819Z,106.38
2023-03-17T19:10:18.255Z,103.18
2023-03-17T19:12:23.790Z,121.57
2023-03-17T19:14:27.681Z,105.38
2023-03-17T19:16:31.937Z,110.80
2023-03-17T19:18:36.864Z,107.95
2023-03-17T19:20:40.833Z,85.63
2023-03-17T19:22:44.691Z,68.28
2023-03-17T19:24:50.135Z,83.00
2023-03-17T19:27:09.228Z,82.45
2023-03-17T19:29:14.437Z,79.82
2023-03-17T19:31:18.350Z,88.45
2023-03-17T19:33:22.175Z,91.95
2023-03-17T19:35:26.340Z,84.07
2023-03-17T19:37:32.013Z,85.68
2023-03-17T19:39:37.709Z,87.07
2023-03-17T19:41:41.790Z,79.72
2023-03-17T19:43:45.770Z,77.38
2023-03-17T19:45:51.158Z,84.20
2023-03-17T19:47:55.106Z,80.40
2023-03-17T19:49:58.955Z,76.53
2023-03-17T19:52:03.209Z,74.75
2023-03-17T19:54:07.941Z,72.07
2023-03-17T19:56:11.837Z,78.50
2023-03-17T19:58:16.201Z,86.63
2023-03-17T20:00:20.841Z,84.22
2023-03-17T20:02:26.017Z,84.60
2023-03-17T20:04:30.190Z,68.93
2023-03-17T20:06:34.603Z,75.40
2023-03-17T20:08:38.544Z,77.05
2023-03-17T20:10:42.434Z,64.45
2023-03-17T20:12:46.667Z,77.22
2023-03-17T20:14:50.973Z,70.18
2023-03-17T20:16:55.153Z,73.68
2023-03-17T20:19:00.440Z,68.57
2023-03-17T20:21:05.602Z,63.13
2023-03-17T20:23:09.707Z,64.20
2023-03-17T20:25:13.906Z,67.20
2023-03-17T20:27:17.920Z,64.85
2023-03-17T20:29:21.893Z,70.65
2023-03-17T20:31:25.767Z,66.18
2023-03-17T20:33:29.768Z,60.50
2023-03-17T20:35:35.386Z,65.82
2023-03-17T20:37:39.878Z,62.15
2023-03-17T20:39:43.973Z,60.05
2023-03-17T20:41:48.211Z,59.83
2023-03-17T20:43:52.328Z,59.83
2023-03-17T20:45:56.347Z,61.20
2023-03-17T20:48:00.781Z,58.08
2023-03-17T20:50:06.267Z,56.65
2023-03-17T20:52:13.492Z,56.28
2023-03-17T20:54:17.869Z,58.67
2023-03-17T20:56:23.529Z,57.28
2023-03-17T20:58:27.861Z,55.97
2023-03-17T21:00:32.834Z,48.80
2023-03-17T21:02:37.048Z,51.05
2023-03-17T21:04:41.535Z,58.90
2023-03-17T21:06:45.482Z,53.55
2023-03-17T21:08:53.609Z,57.05
2023-03-17T21:10:57.559Z,50.83
2023-03-17T21:13:01.443Z,57.75
2023-03-17T21:15:07.841Z,53.05
2023-03-17T21:17:11.693Z,50.67
2023-03-17T21:19:15.949Z,48.85
2023-03-17T21:21:20.501Z,45.08
